sensor_id;sensor_type;location;lat;lon;timestamp;temperature;humidity
22795;DHT22;11564;50.920;11.612;2023-05-29T00:02:09;8.00;99.90
22795;DHT22;11564;50.920;11.612;2023-05-29T00:04:35;8.00;99.90
22795;DHT22;11564;50.920;11.612;2023-05-29T00:07:02;8.00;99.90
22795;DHT22;11564;50.920;11.612;2023-05-29T00:09:28;7.90;99.90
22795;DHT22;11564;50.920;11.612;2023-05-29T00:11:55;7.90;99.90
22795;DHT22;11564;50.920;11.612;2023-05-29T00:14:21;7.80;99.90
22795;DHT22;11564;50.920;11.612;2023-05-29T00:16:48;7.70;99.90
22795;DHT22;11564;50.920;11.612;2023-05-29T00:19:14;7.60;99.90
22795;DHT22;11564;50.920;11.612;2023-05-29T00:21:42;7.60;99.90
22795;DHT22;11564;50.920;11.612;2023-05-29T00:24:08;7.60;99.90
22795;DHT22;11564;50.920;11.612;2023-05-29T00:26:34;7.50;99.90
22795;DHT22;11564;50.920;11.612;2023-05-29T00:29:00;7.50;99.90
22795;DHT22;11564;50.920;11.612;2023-05-29T00:31:25;7.50;99.90
22795;DHT22;11564;50.920;11.612;2023-05-29T00:33:51;7.50;99.90
22795;DHT22;11564;50.920;11.612;2023-05-29T00:36:17;7.40;99.90
22795;DHT22;11564;50.920;11.612;2023-05-29T00:38:43;7.40;99.90
22795;DHT22;11564;50.920;11.612;2023-05-29T00:41:14;7.40;99.90
22795;DHT22;11564;50.920;11.612;2023-05-29T00:43:41;7.40;99.90
22795;DHT22;11564;50.920;11.612;2023-05-29T00:46:07;7.40;99.90
22795;DHT22;11564;50.920;11.612;2023-05-29T00:48:33;7.30;99.90
22795;DHT22;11564;50.920;11.612;2023-05-29T00:50:59;7.40;99.90
22795;DHT22;11564;50.920;11.612;2023-05-29T00:53:25;7.40;99.90
22795;DHT22;11564;50.920;11.612;2023-05-29T00:55:52;7.50;99.90
22795;DHT22;11564;50.920;11.612;2023-05-29T00:58:18;7.50;99.90
22795;DHT22;11564;50.920;11.612;2023-05-29T01:00:44;7.50;99.90
22795;DHT22;11564;50.920;11.612;2023-05-29T01:03:12;7.50;99.90
22795;DHT22;11564;50.920;11.612;2023-05-29T01:05:40;7.50;99.90
22795;DHT22;11564;50.920;11.612;2023-05-29T01:08:07;7.40;99.90
22795;DHT22;11564;50.920;11.612;2023-05-29T01:10:33;7.40;99.90
22795;DHT22;11564;50.920;11.612;2023-05-29T01:13:18;7.40;99.90
22795;DHT22;11564;50.920;11.612;2023-05-29T01:19:00;7.30;99.90
22795;DHT22;11564;50.920;11.612;2023-05-29T01:22:04;7.20;99.90
22795;DHT22;11564;50.920;11.612;2023-05-29T01:24:49;7.10;99.90
22795;DHT22;11564;50.920;11.612;2023-05-29T01:27:19;7.10;99.90
22795;DHT22;11564;50.920;11.612;2023-05-29T01:29:47;7.10;99.90
22795;DHT22;11564;50.920;11.612;2023-05-29T01:32:15;7.00;99.90
22795;DHT22;11564;50.920;11.612;2023-05-29T01:34:40;6.90;99.90
22795;DHT22;11564;50.920;11.612;2023-05-29T01:37:06;6.90;99.90
22795;DHT22;11564;50.920;11.612;2023-05-29T01:39:32;6.80;99.90
22795;DHT22;11564;50.920;11.612;2023-05-29T01:41:59;6.80;99.90
22795;DHT22;11564;50.920;11.612;2023-05-29T01:44:26;6.80;99.90
22795;DHT22;11564;50.920;11.612;2023-05-29T01:46:52;6.70;99.90
22795;DHT22;11564;50.920;11.612;2023-05-29T01:49:18;6.60;99.90
22795;DHT22;11564;50.920;11.612;2023-05-29T01:51:44;6.60;99.90
22795;DHT22;11564;50.920;11.612;2023-05-29T01:54:10;6.50;99.90
22795;DHT22;11564;50.920;11.612;2023-05-29T01:56:36;6.50;99.90
22795;DHT22;11564;50.920;11.612;2023-05-29T01:59:03;6.40;99.90
22795;DHT22;11564;50.920;11.612;2023-05-29T02:01:29;6.40;99.90
22795;DHT22;11564;50.920;11.612;2023-05-29T02:03:55;6.50;99.90
22795;DHT22;11564;50.920;11.612;2023-05-29T02:06:20;6.40;99.90
22795;DHT22;11564;50.920;11.612;2023-05-29T02:08:46;6.40;99.90
22795;DHT22;11564;50.920;11.612;2023-05-29T02:11:12;6.40;99.90
22795;DHT22;11564;50.920;11.612;2023-05-29T02:13:38;6.30;99.90
22795;DHT22;11564;50.920;11.612;2023-05-29T02:16:04;6.30;99.90
22795;DHT22;11564;50.920;11.612;2023-05-29T02:18:30;6.30;99.90
22795;DHT22;11564;50.920;11.612;2023-05-29T02:20:56;6.30;99.90
22795;DHT22;11564;50.920;11.612;2023-05-29T02:23:22;6.20;99.90
22795;DHT22;11564;50.920;11.612;2023-05-29T02:25:47;6.20;99.90
22795;DHT22;11564;50.920;11.612;2023-05-29T02:28:13;6.20;99.90
22795;DHT22;11564;50.920;11.612;2023-05-29T02:30:39;6.20;99.90
22795;DHT22;11564;50.920;11.612;2023-05-29T02:33:04;6.10;99.90
22795;DHT22;11564;50.920;11.612;2023-05-29T02:35:31;6.00;99.90
22795;DHT22;11564;50.920;11.612;2023-05-29T02:37:57;6.00;99.90
22795;DHT22;11564;50.920;11.612;2023-05-29T02:40:23;6.00;99.90
22795;DHT22;11564;50.920;11.612;2023-05-29T02:42:49;5.90;99.90
22795;DHT22;11564;50.920;11.612;2023-05-29T02:45:16;6.00;99.90
22795;DHT22;11564;50.920;11.612;2023-05-29T02:47:42;5.90;99.90
22795;DHT22;11564;50.920;11.612;2023-05-29T02:50:08;5.90;99.90
22795;DHT22;11564;50.920;11.612;2023-05-29T02:52:34;5.90;99.90
22795;DHT22;11564;50.920;11.612;2023-05-29T02:55:02;5.90;99.90
22795;DHT22;11564;50.920;11.612;2023-05-29T02:57:28;5.80;99.90
22795;DHT22;11564;50.920;11.612;2023-05-29T02:59:54;5.80;99.90
22795;DHT22;11564;50.920;11.612;2023-05-29T03:02:20;5.80;99.90
22795;DHT22;11564;50.920;11.612;2023-05-29T03:04:46;5.80;99.90
22795;DHT22;11564;50.920;11.612;2023-05-29T03:07:12;5.80;99.90
22795;DHT22;11564;50.920;11.612;2023-05-29T03:09:38;5.80;99.90
22795;DHT22;11564;50.920;11.612;2023-05-29T03:12:04;5.80;99.90
22795;DHT22;11564;50.920;11.612;2023-05-29T03:14:29;5.80;99.90
22795;DHT22;11564;50.920;11.612;2023-05-29T03:16:55;5.80;99.90
22795;DHT22;11564;50.920;11.612;2023-05-29T03:19:21;5.70;99.90
22795;DHT22;11564;50.920;11.612;2023-05-29T03:21:47;5.70;99.90
22795;DHT22;11564;50.920;11.612;2023-05-29T03:24:13;5.70;99.90
22795;DHT22;11564;50.920;11.612;2023-05-29T03:26:41;5.80;99.90
22795;DHT22;11564;50.920;11.612;2023-05-29T03:29:07;5.80;99.90
22795;DHT22;11564;50.920;11.612;2023-05-29T03:31:33;5.80;99.90
22795;DHT22;11564;50.920;11.612;2023-05-29T03:33:59;5.90;99.90
22795;DHT22;11564;50.920;11.612;2023-05-29T03:36:25;5.90;99.90
22795;DHT22;11564;50.920;11.612;2023-05-29T03:38:50;5.90;99.90
22795;DHT22;11564;50.920;11.612;2023-05-29T03:41:16;5.90;99.90
22795;DHT22;11564;50.920;11.612;2023-05-29T03:43:42;6.00;99.90
22795;DHT22;11564;50.920;11.612;2023-05-29T03:46:07;6.00;99.90
22795;DHT22;11564;50.920;11.612;2023-05-29T03:48:33;6.00;99.90
22795;DHT22;11564;50.920;11.612;2023-05-29T03:50:59;6.10;99.90
22795;DHT22;11564;50.920;11.612;2023-05-29T03:53:24;6.20;99.90
22795;DHT22;11564;50.920;11.612;2023-05-29T03:55:50;6.20;99.90
22795;DHT22;11564;50.920;11.612;2023-05-29T03:58:16;6.20;99.90
22795;DHT22;11564;50.920;11.612;2023-05-29T04:00:41;6.30;99.90
22795;DHT22;11564;50.920;11.612;2023-05-29T04:03:08;6.30;99.90
22795;DHT22;11564;50.920;11.612;2023-05-29T04:05:34;6.30;99.90
22795;DHT22;11564;50.920;11.612;2023-05-29T04:08:00;6.20;99.90
22795;DHT22;11564;50.920;11.612;2023-05-29T04:10:26;6.30;99.90
22795;DHT22;11564;50.920;11.612;2023-05-29T04:12:52;6.30;99.90
22795;DHT22;11564;50.920;11.612;2023-05-29T04:15:17;6.40;99.90
22795;DHT22;11564;50.920;11.612;2023-05-29T04:17:43;6.40;99.90
22795;DHT22;11564;50.920;11.612;2023-05-29T04:20:09;6.50;99.90
22795;DHT22;11564;50.920;11.612;2023-05-29T04:22:38;6.50;99.90
22795;DHT22;11564;50.920;11.612;2023-05-29T04:25:04;6.50;99.90
22795;DHT22;11564;50.920;11.612;2023-05-29T04:27:31;6.60;99.90
22795;DHT22;11564;50.920;11.612;2023-05-29T04:29:58;6.60;99.90
22795;DHT22;11564;50.920;11.612;2023-05-29T04:32:24;6.70;99.90
22795;DHT22;11564;50.920;11.612;2023-05-29T04:34:50;6.80;99.90
22795;DHT22;11564;50.920;11.612;2023-05-29T04:37:16;6.90;99.90
22795;DHT22;11564;50.920;11.612;2023-05-29T04:39:43;7.00;99.90
22795;DHT22;11564;50.920;11.612;2023-05-29T04:42:08;7.00;99.90
22795;DHT22;11564;50.920;11.612;2023-05-29T04:44:34;7.10;99.90
22795;DHT22;11564;50.920;11.612;2023-05-29T04:47:00;7.20;99.90
22795;DHT22;11564;50.920;11.612;2023-05-29T04:49:28;7.30;99.90
22795;DHT22;11564;50.920;11.612;2023-05-29T04:51:54;7.50;99.90
22795;DHT22;11564;50.920;11.612;2023-05-29T04:54:21;7.60;99.90
22795;DHT22;11564;50.920;11.612;2023-05-29T04:56:47;7.70;99.90
22795;DHT22;11564;50.920;11.612;2023-05-29T04:59:13;7.80;99.90
22795;DHT22;11564;50.920;11.612;2023-05-29T05:01:39;8.00;99.90
22795;DHT22;11564;50.920;11.612;2023-05-29T05:04:04;8.10;99.90
22795;DHT22;11564;50.920;11.612;2023-05-29T05:06:30;8.20;99.90
22795;DHT22;11564;50.920;11.612;2023-05-29T05:08:56;8.30;99.90
22795;DHT22;11564;50.920;11.612;2023-05-29T05:11:23;8.40;99.90
22795;DHT22;11564;50.920;11.612;2023-05-29T05:13:49;8.60;99.90
22795;DHT22;11564;50.920;11.612;2023-05-29T05:16:15;8.60;99.90
22795;DHT22;11564;50.920;11.612;2023-05-29T05:18:43;8.80;99.90
22795;DHT22;11564;50.920;11.612;2023-05-29T05:21:08;8.90;99.90
22795;DHT22;11564;50.920;11.612;2023-05-29T05:23:34;9.10;99.90
22795;DHT22;11564;50.920;11.612;2023-05-29T05:26:00;9.20;99.90
22795;DHT22;11564;50.920;11.612;2023-05-29T05:28:25;9.30;99.90
22795;DHT22;11564;50.920;11.612;2023-05-29T05:30:51;9.50;99.90
22795;DHT22;11564;50.920;11.612;2023-05-29T05:33:17;9.60;99.90
22795;DHT22;11564;50.920;11.612;2023-05-29T05:35:42;9.80;99.90
22795;DHT22;11564;50.920;11.612;2023-05-29T05:38:08;10.00;99.90
22795;DHT22;11564;50.920;11.612;2023-05-29T05:40:34;10.10;99.90
22795;DHT22;11564;50.920;11.612;2023-05-29T05:43:00;10.20;99.90
22795;DHT22;11564;50.920;11.612;2023-05-29T05:45:25;10.50;99.90
22795;DHT22;11564;50.920;11.612;2023-05-29T05:47:51;10.70;99.90
22795;DHT22;11564;50.920;11.612;2023-05-29T05:50:17;10.90;99.90
22795;DHT22;11564;50.920;11.612;2023-05-29T05:52:42;11.10;99.90
22795;DHT22;11564;50.920;11.612;2023-05-29T05:55:08;11.20;99.90
22795;DHT22;11564;50.920;11.612;2023-05-29T05:57:34;11.50;99.90
22795;DHT22;11564;50.920;11.612;2023-05-29T06:00:04;11.70;99.90
22795;DHT22;11564;50.920;11.612;2023-05-29T06:02:38;11.70;99.90
22795;DHT22;11564;50.920;11.612;2023-05-29T06:05:07;11.70;99.90
22795;DHT22;11564;50.920;11.612;2023-05-29T06:07:32;11.80;99.90
22795;DHT22;11564;50.920;11.612;2023-05-29T06:09:58;12.00;99.90
22795;DHT22;11564;50.920;11.612;2023-05-29T06:12:25;12.20;99.90
22795;DHT22;11564;50.920;11.612;2023-05-29T06:14:51;12.40;99.90
22795;DHT22;11564;50.920;11.612;2023-05-29T06:17:16;12.40;99.90
22795;DHT22;11564;50.920;11.612;2023-05-29T06:19:42;12.50;99.90
22795;DHT22;11564;50.920;11.612;2023-05-29T06:22:08;12.60;99.90
22795;DHT22;11564;50.920;11.612;2023-05-29T06:24:33;12.70;99.90
22795;DHT22;11564;50.920;11.612;2023-05-29T06:26:59;12.80;99.90
22795;DHT22;11564;50.920;11.612;2023-05-29T06:29:25;12.90;99.90
22795;DHT22;11564;50.920;11.612;2023-05-29T06:31:50;13.00;99.90
22795;DHT22;11564;50.920;11.612;2023-05-29T06:34:16;13.10;99.90
22795;DHT22;11564;50.920;11.612;2023-05-29T06:36:42;13.30;99.90
22795;DHT22;11564;50.920;11.612;2023-05-29T06:39:07;13.30;99.90
22795;DHT22;11564;50.920;11.612;2023-05-29T06:41:33;13.40;99.90
22795;DHT22;11564;50.920;11.612;2023-05-29T06:43:59;13.50;99.90
22795;DHT22;11564;50.920;11.612;2023-05-29T06:46:24;13.50;99.90
22795;DHT22;11564;50.920;11.612;2023-05-29T06:48:50;13.80;99.90
22795;DHT22;11564;50.920;11.612;2023-05-29T06:51:16;13.80;99.90
22795;DHT22;11564;50.920;11.612;2023-05-29T06:53:42;13.80;99.90
22795;DHT22;11564;50.920;11.612;2023-05-29T06:56:08;13.80;99.90
22795;DHT22;11564;50.920;11.612;2023-05-29T06:58:34;13.80;99.90
22795;DHT22;11564;50.920;11.612;2023-05-29T07:01:00;14.00;99.90
22795;DHT22;11564;50.920;11.612;2023-05-29T07:03:26;14.10;99.90
22795;DHT22;11564;50.920;11.612;2023-05-29T07:05:52;14.10;99.90
22795;DHT22;11564;50.920;11.612;2023-05-29T07:08:18;14.30;99.90
22795;DHT22;11564;50.920;11.612;2023-05-29T07:10:44;14.30;99.90
22795;DHT22;11564;50.920;11.612;2023-05-29T07:13:14;14.30;99.90
22795;DHT22;11564;50.920;11.612;2023-05-29T07:15:40;14.40;99.90
22795;DHT22;11564;50.920;11.612;2023-05-29T07:18:06;14.60;99.90
22795;DHT22;11564;50.920;11.612;2023-05-29T07:20:31;14.70;99.90
22795;DHT22;11564;50.920;11.612;2023-05-29T07:22:57;14.70;99.90
22795;DHT22;11564;50.920;11.612;2023-05-29T07:25:22;14.90;99.90
22795;DHT22;11564;50.920;11.612;2023-05-29T07:27:48;15.00;99.90
22795;DHT22;11564;50.920;11.612;2023-05-29T07:30:14;15.10;99.90
22795;DHT22;11564;50.920;11.612;2023-05-29T07:32:39;15.20;99.90
22795;DHT22;11564;50.920;11.612;2023-05-29T07:35:05;15.30;99.90
22795;DHT22;11564;50.920;11.612;2023-05-29T07:37:31;15.30;99.90
22795;DHT22;11564;50.920;11.612;2023-05-29T07:39:57;15.20;99.90
22795;DHT22;11564;50.920;11.612;2023-05-29T07:42:23;15.30;99.90
22795;DHT22;11564;50.920;11.612;2023-05-29T07:44:48;15.40;99.90
22795;DHT22;11564;50.920;11.612;2023-05-29T07:47:14;15.50;99.90
22795;DHT22;11564;50.920;11.612;2023-05-29T07:49:40;15.60;99.90
22795;DHT22;11564;50.920;11.612;2023-05-29T07:52:06;15.80;99.90
22795;DHT22;11564;50.920;11.612;2023-05-29T07:54:32;16.00;99.90
22795;DHT22;11564;50.920;11.612;2023-05-29T07:57:01;16.00;99.90
22795;DHT22;11564;50.920;11.612;2023-05-29T07:59:38;16.10;99.90
22795;DHT22;11564;50.920;11.612;2023-05-29T08:02:06;16.10;99.90
22795;DHT22;11564;50.920;11.612;2023-05-29T08:04:32;16.20;99.90
22795;DHT22;11564;50.920;11.612;2023-05-29T08:07:01;16.50;99.90
22795;DHT22;11564;50.920;11.612;2023-05-29T08:09:29;16.50;99.90
22795;DHT22;11564;50.920;11.612;2023-05-29T08:11:55;16.50;99.90
22795;DHT22;11564;50.920;11.612;2023-05-29T08:14:20;16.70;99.90
22795;DHT22;11564;50.920;11.612;2023-05-29T08:16:46;17.00;99.90
22795;DHT22;11564;50.920;11.612;2023-05-29T08:19:12;17.30;99.90
22795;DHT22;11564;50.920;11.612;2023-05-29T08:21:37;17.40;99.90
22795;DHT22;11564;50.920;11.612;2023-05-29T08:24:03;17.40;99.90
22795;DHT22;11564;50.920;11.612;2023-05-29T08:26:32;17.60;99.90
22795;DHT22;11564;50.920;11.612;2023-05-29T08:28:58;17.70;99.90
22795;DHT22;11564;50.920;11.612;2023-05-29T08:31:23;17.80;99.90
22795;DHT22;11564;50.920;11.612;2023-05-29T08:33:51;17.90;99.90
22795;DHT22;11564;50.920;11.612;2023-05-29T08:36:17;17.80;99.80
22795;DHT22;11564;50.920;11.612;2023-05-29T08:38:43;17.80;99.90
22795;DHT22;11564;50.920;11.612;2023-05-29T08:41:15;17.90;99.90
22795;DHT22;11564;50.920;11.612;2023-05-29T08:43:43;17.90;99.50
22795;DHT22;11564;50.920;11.612;2023-05-29T08:46:09;17.90;99.60
22795;DHT22;11564;50.920;11.612;2023-05-29T08:48:38;18.00;99.50
22795;DHT22;11564;50.920;11.612;2023-05-29T08:51:06;18.10;98.90
22795;DHT22;11564;50.920;11.612;2023-05-29T08:53:33;18.20;99.00
22795;DHT22;11564;50.920;11.612;2023-05-29T08:56:00;18.40;98.90
22795;DHT22;11564;50.920;11.612;2023-05-29T08:58:26;18.70;98.90
22795;DHT22;11564;50.920;11.612;2023-05-29T09:00:52;18.70;97.70
22795;DHT22;11564;50.920;11.612;2023-05-29T09:03:18;19.00;97.90
22795;DHT22;11564;50.920;11.612;2023-05-29T09:05:46;19.20;96.90
22795;DHT22;11564;50.920;11.612;2023-05-29T09:08:12;19.40;96.20
22795;DHT22;11564;50.920;11.612;2023-05-29T09:10:40;19.40;96.20
22795;DHT22;11564;50.920;11.612;2023-05-29T09:13:06;19.60;95.60
22795;DHT22;11564;50.920;11.612;2023-05-29T09:15:33;19.60;94.90
22795;DHT22;11564;50.920;11.612;2023-05-29T09:17:59;19.70;95.00
22795;DHT22;11564;50.920;11.612;2023-05-29T09:20:25;19.50;92.80
22795;DHT22;11564;50.920;11.612;2023-05-29T09:25:26;19.50;92.80
22795;DHT22;11564;50.920;11.612;2023-05-29T09:28:02;19.60;93.10
22795;DHT22;11564;50.920;11.612;2023-05-29T09:30:39;19.60;91.30
22795;DHT22;11564;50.920;11.612;2023-05-29T09:33:07;19.60;91.50
22795;DHT22;11564;50.920;11.612;2023-05-29T09:35:34;19.50;90.30
22795;DHT22;11564;50.920;11.612;2023-05-29T09:38:01;19.60;90.30
22795;DHT22;11564;50.920;11.612;2023-05-29T09:40:29;19.70;90.00
22795;DHT22;11564;50.920;11.612;2023-05-29T09:42:55;19.90;87.30
22795;DHT22;11564;50.920;11.612;2023-05-29T09:45:21;19.70;88.10
22795;DHT22;11564;50.920;11.612;2023-05-29T09:47:50;19.70;85.50
22795;DHT22;11564;50.920;11.612;2023-05-29T09:50:20;19.70;86.40
22795;DHT22;11564;50.920;11.612;2023-05-29T09:52:46;20.10;87.90
22795;DHT22;11564;50.920;11.612;2023-05-29T09:55:13;20.10;87.40
22795;DHT22;11564;50.920;11.612;2023-05-29T09:57:46;19.90;86.30
22795;DHT22;11564;50.920;11.612;2023-05-29T10:00:12;20.10;86.90
22795;DHT22;11564;50.920;11.612;2023-05-29T10:02:39;20.30;85.80
22795;DHT22;11564;50.920;11.612;2023-05-29T10:05:08;20.30;86.20
22795;DHT22;11564;50.920;11.612;2023-05-29T10:07:36;20.20;85.00
22795;DHT22;11564;50.920;11.612;2023-05-29T10:10:04;20.10;84.30
22795;DHT22;11564;50.920;11.612;2023-05-29T10:12:32;20.10;85.30
22795;DHT22;11564;50.920;11.612;2023-05-29T10:15:01;20.20;84.90
22795;DHT22;11564;50.920;11.612;2023-05-29T10:17:34;20.40;85.60
22795;DHT22;11564;50.920;11.612;2023-05-29T10:20:02;20.70;86.40
22795;DHT22;11564;50.920;11.612;2023-05-29T10:22:31;21.00;85.20
22795;DHT22;11564;50.920;11.612;2023-05-29T10:24:58;21.10;84.30
22795;DHT22;11564;50.920;11.612;2023-05-29T10:27:24;20.80;85.40
22795;DHT22;11564;50.920;11.612;2023-05-29T10:30:02;20.60;84.30
22795;DHT22;11564;50.920;11.612;2023-05-29T10:32:37;20.70;84.30
22795;DHT22;11564;50.920;11.612;2023-05-29T10:35:37;20.70;84.30
22795;DHT22;11564;50.920;11.612;2023-05-29T10:38:12;20.50;82.70
22795;DHT22;11564;50.920;11.612;2023-05-29T10:40:39;20.40;82.30
22795;DHT22;11564;50.920;11.612;2023-05-29T10:43:05;20.40;82.90
22795;DHT22;11564;50.920;11.612;2023-05-29T10:50:41;20.50;82.30
22795;DHT22;11564;50.920;11.612;2023-05-29T10:53:07;20.50;83.00
22795;DHT22;11564;50.920;11.612;2023-05-29T10:55:36;20.70;84.50
22795;DHT22;11564;50.920;11.612;2023-05-29T11:00:31;20.60;81.90
22795;DHT22;11564;50.920;11.612;2023-05-29T11:03:04;20.60;81.90
22795;DHT22;11564;50.920;11.612;2023-05-29T11:05:32;20.70;81.80
22795;DHT22;11564;50.920;11.612;2023-05-29T11:07:59;20.80;80.10
22795;DHT22;11564;50.920;11.612;2023-05-29T11:10:45;21.00;79.80
22795;DHT22;11564;50.920;11.612;2023-05-29T11:13:52;21.20;79.20
22795;DHT22;11564;50.920;11.612;2023-05-29T11:18:55;21.10;75.50
22795;DHT22;11564;50.920;11.612;2023-05-29T11:24:00;21.10;76.80
22795;DHT22;11564;50.920;11.612;2023-05-29T11:26:31;21.40;77.70
22795;DHT22;11564;50.920;11.612;2023-05-29T11:29:00;21.70;75.70
22795;DHT22;11564;50.920;11.612;2023-05-29T11:31:28;21.90;75.30
22795;DHT22;11564;50.920;11.612;2023-05-29T11:33:59;21.60;73.90
22795;DHT22;11564;50.920;11.612;2023-05-29T11:36:26;21.40;74.50
22795;DHT22;11564;50.920;11.612;2023-05-29T11:38:53;21.50;74.80
22795;DHT22;11564;50.920;11.612;2023-05-29T11:41:19;21.60;74.40
22795;DHT22;11564;50.920;11.612;2023-05-29T11:43:59;21.60;72.90
22795;DHT22;11564;50.920;11.612;2023-05-29T11:46:24;21.90;74.60
22795;DHT22;11564;50.920;11.612;2023-05-29T11:48:51;21.90;72.70
22795;DHT22;11564;50.920;11.612;2023-05-29T11:51:17;22.30;73.40
22795;DHT22;11564;50.920;11.612;2023-05-29T11:53:46;22.80;73.10
22795;DHT22;11564;50.920;11.612;2023-05-29T11:56:12;23.20;71.20
22795;DHT22;11564;50.920;11.612;2023-05-29T11:58:39;23.30;69.30
22795;DHT22;11564;50.920;11.612;2023-05-29T12:01:05;23.40;69.80
22795;DHT22;11564;50.920;11.612;2023-05-29T12:03:38;23.50;68.60
22795;DHT22;11564;50.920;11.612;2023-05-29T12:06:05;23.10;66.80
22795;DHT22;11564;50.920;11.612;2023-05-29T12:08:32;22.60;69.90
22795;DHT22;11564;50.920;11.612;2023-05-29T12:10:57;22.70;69.90
22795;DHT22;11564;50.920;11.612;2023-05-29T12:13:23;23.00;70.20
22795;DHT22;11564;50.920;11.612;2023-05-29T12:15:53;23.30;70.10
22795;DHT22;11564;50.920;11.612;2023-05-29T12:18:20;23.30;70.30
22795;DHT22;11564;50.920;11.612;2023-05-29T12:20:45;23.70;70.60
22795;DHT22;11564;50.920;11.612;2023-05-29T12:23:11;24.20;71.40
22795;DHT22;11564;50.920;11.612;2023-05-29T12:25:37;24.10;68.90
22795;DHT22;11564;50.920;11.612;2023-05-29T12:28:04;23.40;69.00
22795;DHT22;11564;50.920;11.612;2023-05-29T12:30:30;23.30;70.80
22795;DHT22;11564;50.920;11.612;2023-05-29T12:32:56;23.90;69.40
22795;DHT22;11564;50.920;11.612;2023-05-29T12:35:23;24.40;69.20
22795;DHT22;11564;50.920;11.612;2023-05-29T12:38:05;24.20;68.90
22795;DHT22;11564;50.920;11.612;2023-05-29T12:40:34;24.00;68.40
22795;DHT22;11564;50.920;11.612;2023-05-29T12:43:07;24.10;67.90
22795;DHT22;11564;50.920;11.612;2023-05-29T12:45:36;24.40;68.40
22795;DHT22;11564;50.920;11.612;2023-05-29T12:48:03;24.90;68.50
22795;DHT22;11564;50.920;11.612;2023-05-29T12:53:06;25.60;66.90
22795;DHT22;11564;50.920;11.612;2023-05-29T12:55:33;25.70;65.60
22795;DHT22;11564;50.920;11.612;2023-05-29T12:57:59;25.60;65.30
22795;DHT22;11564;50.920;11.612;2023-05-29T13:00:25;25.70;65.20
22795;DHT22;11564;50.920;11.612;2023-05-29T13:02:51;25.30;65.70
22795;DHT22;11564;50.920;11.612;2023-05-29T13:05:17;25.60;65.40
22795;DHT22;11564;50.920;11.612;2023-05-29T13:07:46;24.60;64.70
22795;DHT22;11564;50.920;11.612;2023-05-29T13:10:12;24.60;65.40
22795;DHT22;11564;50.920;11.612;2023-05-29T13:12:37;25.70;66.20
22795;DHT22;11564;50.920;11.612;2023-05-29T13:15:03;27.30;63.90
22795;DHT22;11564;50.920;11.612;2023-05-29T13:17:29;27.70;62.20
22795;DHT22;11564;50.920;11.612;2023-05-29T13:19:55;28.10;59.50
22795;DHT22;11564;50.920;11.612;2023-05-29T13:22:20;27.40;58.80
22795;DHT22;11564;50.920;11.612;2023-05-29T13:24:46;30.20;56.70
22795;DHT22;11564;50.920;11.612;2023-05-29T13:27:12;33.70;52.40
22795;DHT22;11564;50.920;11.612;2023-05-29T13:29:42;35.30;50.00
22795;DHT22;11564;50.920;11.612;2023-05-29T13:32:08;37.90;45.70
22795;DHT22;11564;50.920;11.612;2023-05-29T13:34:34;39.20;43.70
22795;DHT22;11564;50.920;11.612;2023-05-29T13:37:00;40.40;40.60
22795;DHT22;11564;50.920;11.612;2023-05-29T13:39:28;40.40;39.40
22795;DHT22;11564;50.920;11.612;2023-05-29T13:41:53;40.90;36.70
22795;DHT22;11564;50.920;11.612;2023-05-29T13:44:19;38.30;40.30
22795;DHT22;11564;50.920;11.612;2023-05-29T13:46:45;38.80;39.40
22795;DHT22;11564;50.920;11.612;2023-05-29T13:49:11;39.40;39.30
22795;DHT22;11564;50.920;11.612;2023-05-29T13:51:37;40.00;37.60
22795;DHT22;11564;50.920;11.612;2023-05-29T13:54:03;38.90;38.10
22795;DHT22;11564;50.920;11.612;2023-05-29T13:56:29;35.20;40.50
22795;DHT22;11564;50.920;11.612;2023-05-29T13:58:55;34.00;41.80
22795;DHT22;11564;50.920;11.612;2023-05-29T14:01:20;32.60;43.10
22795;DHT22;11564;50.920;11.612;2023-05-29T14:03:47;32.30;43.90
22795;DHT22;11564;50.920;11.612;2023-05-29T14:06:12;30.90;45.70
22795;DHT22;11564;50.920;11.612;2023-05-29T14:08:38;28.70;47.80
22795;DHT22;11564;50.920;11.612;2023-05-29T14:11:04;29.00;49.10
22795;DHT22;11564;50.920;11.612;2023-05-29T14:13:29;29.60;48.60
22795;DHT22;11564;50.920;11.612;2023-05-29T14:15:55;29.50;48.40
22795;DHT22;11564;50.920;11.612;2023-05-29T14:18:22;32.00;47.00
22795;DHT22;11564;50.920;11.612;2023-05-29T14:20:48;31.00;46.30
22795;DHT22;11564;50.920;11.612;2023-05-29T14:23:17;30.20;47.40
22795;DHT22;11564;50.920;11.612;2023-05-29T14:25:43;29.10;48.10
22795;DHT22;11564;50.920;11.612;2023-05-29T14:28:09;29.30;48.40
22795;DHT22;11564;50.920;11.612;2023-05-29T14:30:38;28.70;49.40
22795;DHT22;11564;50.920;11.612;2023-05-29T14:33:04;29.80;49.70
22795;DHT22;11564;50.920;11.612;2023-05-29T14:35:30;31.70;46.00
22795;DHT22;11564;50.920;11.612;2023-05-29T14:37:57;33.10;44.80
22795;DHT22;11564;50.920;11.612;2023-05-29T14:40:23;35.30;43.40
22795;DHT22;11564;50.920;11.612;2023-05-29T14:42:48;35.70;43.10
22795;DHT22;11564;50.920;11.612;2023-05-29T14:45:14;34.60;41.30
22795;DHT22;11564;50.920;11.612;2023-05-29T14:47:40;33.80;44.50
22795;DHT22;11564;50.920;11.612;2023-05-29T14:50:07;33.50;42.90
22795;DHT22;11564;50.920;11.612;2023-05-29T14:52:33;32.50;44.40
22795;DHT22;11564;50.920;11.612;2023-05-29T14:55:01;31.20;45.80
22795;DHT22;11564;50.920;11.612;2023-05-29T14:57:27;30.20;46.80
22795;DHT22;11564;50.920;11.612;2023-05-29T14:59:52;30.00;48.00
22795;DHT22;11564;50.920;11.612;2023-05-29T15:02:18;28.50;48.40
22795;DHT22;11564;50.920;11.612;2023-05-29T15:04:43;28.20;48.00
22795;DHT22;11564;50.920;11.612;2023-05-29T15:07:09;29.40;48.10
22795;DHT22;11564;50.920;11.612;2023-05-29T15:09:35;31.60;46.30
22795;DHT22;11564;50.920;11.612;2023-05-29T15:12:01;30.70;45.30
22795;DHT22;11564;50.920;11.612;2023-05-29T15:14:28;29.90;46.80
22795;DHT22;11564;50.920;11.612;2023-05-29T15:16:54;29.60;48.10
22795;DHT22;11564;50.920;11.612;2023-05-29T15:19:20;30.00;47.90
22795;DHT22;11564;50.920;11.612;2023-05-29T15:21:46;29.90;47.30
22795;DHT22;11564;50.920;11.612;2023-05-29T15:24:11;29.40;48.20
22795;DHT22;11564;50.920;11.612;2023-05-29T15:26:37;28.60;49.40
22795;DHT22;11564;50.920;11.612;2023-05-29T15:29:03;27.60;50.60
22795;DHT22;11564;50.920;11.612;2023-05-29T15:31:28;27.20;52.00
22795;DHT22;11564;50.920;11.612;2023-05-29T15:33:54;28.50;50.30
22795;DHT22;11564;50.920;11.612;2023-05-29T15:36:20;27.80;50.20
22795;DHT22;11564;50.920;11.612;2023-05-29T15:38:46;28.30;50.20
22795;DHT22;11564;50.920;11.612;2023-05-29T15:41:12;28.30;49.60
22795;DHT22;11564;50.920;11.612;2023-05-29T15:43:38;29.20;50.00